sensor_id;sensor_type;location;lat;lon;timestamp;pressure;altitude;pressure_sealevel;temperature;humidity
23363;BME280;11853;48.080;11.960;2023-12-20T00:01:16;94788.94;;;7.61;57.37
23363;BME280;11853;48.080;11.960;2023-12-20T00:03:42;94783.13;;;7.57;57.94
23363;BME280;11853;48.080;11.960;2023-12-20T00:06:08;94784.50;;;7.52;58.28
23363;BME280;11853;48.080;11.960;2023-12-20T00:08:37;94770.47;;;7.51;57.86
23363;BME280;11853;48.080;11.960;2023-12-20T00:11:05;94774.91;;;7.51;58.23
23363;BME280;11853;48.080;11.960;2023-12-20T00:13:46;94777.84;;;7.48;58.35
23363;BME280;11853;48.080;11.960;2023-12-20T00:16:12;94765.31;;;7.50;58.69
23363;BME280;11853;48.080;11.960;2023-12-20T00:18:40;94758.25;;;7.50;57.90
23363;BME280;11853;48.080;11.960;2023-12-20T00:21:06;94761.16;;;7.47;57.96
23363;BME280;11853;48.080;11.960;2023-12-20T00:23:32;94756.00;;;7.45;57.98
23363;BME280;11853;48.080;11.960;2023-12-20T00:26:01;94755.72;;;7.49;58.78
23363;BME280;11853;48.080;11.960;2023-12-20T00:28:27;94756.72;;;7.48;58.45
23363;BME280;11853;48.080;11.960;2023-12-20T00:30:53;94759.34;;;7.48;59.01
23363;BME280;11853;48.080;11.960;2023-12-20T00:33:28;94748.66;;;7.49;59.17
23363;BME280;11853;48.080;11.960;2023-12-20T00:35:57;94751.44;;;7.48;58.55
23363;BME280;11853;48.080;11.960;2023-12-20T00:38:23;94745.44;;;7.45;59.35
23363;BME280;11853;48.080;11.960;2023-12-20T00:40:49;94736.56;;;7.47;58.89
23363;BME280;11853;48.080;11.960;2023-12-20T00:43:15;94743.25;;;7.51;58.97
23363;BME280;11853;48.080;11.960;2023-12-20T00:45:41;94729.63;;;7.55;58.05
23363;BME280;11853;48.080;11.960;2023-12-20T00:48:24;94729.22;;;7.60;58.12
23363;BME280;11853;48.080;11.960;2023-12-20T00:50:50;94731.16;;;7.58;57.59
23363;BME280;11853;48.080;11.960;2023-12-20T00:53:18;94730.19;;;7.59;58.33
23363;BME280;11853;48.080;11.960;2023-12-20T00:55:45;94723.22;;;7.58;57.91
23363;BME280;11853;48.080;11.960;2023-12-20T00:58:11;94723.22;;;7.58;58.08
23363;BME280;11853;48.080;11.960;2023-12-20T01:00:37;94720.19;;;7.53;57.65
23363;BME280;11853;48.080;11.960;2023-12-20T01:03:03;94714.22;;;7.51;58.46
23363;BME280;11853;48.080;11.960;2023-12-20T01:05:29;94719.06;;;7.45;58.70
23363;BME280;11853;48.080;11.960;2023-12-20T01:07:55;94714.34;;;7.39;58.92
23363;BME280;11853;48.080;11.960;2023-12-20T01:10:21;94705.44;;;7.40;59.68
23363;BME280;11853;48.080;11.960;2023-12-20T01:12:48;94707.13;;;7.41;59.25
23363;BME280;11853;48.080;11.960;2023-12-20T01:15:14;94698.50;;;7.39;59.18
23363;BME280;11853;48.080;11.960;2023-12-20T01:17:40;94690.72;;;7.38;59.19
23363;BME280;11853;48.080;11.960;2023-12-20T01:20:06;94693.34;;;7.38;58.89
23363;BME280;11853;48.080;11.960;2023-12-20T01:22:33;94689.47;;;7.42;58.45
23363;BME280;11853;48.080;11.960;2023-12-20T01:25:01;94673.66;;;7.42;58.96
23363;BME280;11853;48.080;11.960;2023-12-20T01:27:28;94674.19;;;7.45;59.30
23363;BME280;11853;48.080;11.960;2023-12-20T01:29:54;94681.84;;;7.49;58.83
23363;BME280;11853;48.080;11.960;2023-12-20T01:32:20;94678.09;;;7.51;59.09
23363;BME280;11853;48.080;11.960;2023-12-20T01:34:46;94676.56;;;7.49;59.33
23363;BME280;11853;48.080;11.960;2023-12-20T01:37:12;94672.25;;;7.48;59.70
23363;BME280;11853;48.080;11.960;2023-12-20T01:39:40;94668.22;;;7.43;59.48
23363;BME280;11853;48.080;11.960;2023-12-20T01:42:06;94674.06;;;7.47;59.34
23363;BME280;11853;48.080;11.960;2023-12-20T01:44:32;94659.72;;;7.50;59.62
23363;BME280;11853;48.080;11.960;2023-12-20T01:46:58;94651.81;;;7.50;60.23
23363;BME280;11853;48.080;11.960;2023-12-20T01:49:24;94662.25;;;7.51;60.68
23363;BME280;11853;48.080;11.960;2023-12-20T01:51:50;94653.78;;;7.48;60.75
23363;BME280;11853;48.080;11.960;2023-12-20T01:54:17;94664.88;;;7.51;60.43
23363;BME280;11853;48.080;11.960;2023-12-20T01:56:45;94650.03;;;7.50;61.08
23363;BME280;11853;48.080;11.960;2023-12-20T01:59:11;94651.00;;;7.49;60.72
23363;BME280;11853;48.080;11.960;2023-12-20T02:01:37;94654.63;;;7.48;60.46
23363;BME280;11853;48.080;11.960;2023-12-20T02:04:03;94653.50;;;7.51;60.55
23363;BME280;11853;48.080;11.960;2023-12-20T02:06:30;94650.72;;;7.52;60.50
23363;BME280;11853;48.080;11.960;2023-12-20T02:08:59;94645.31;;;7.54;60.91
23363;BME280;11853;48.080;11.960;2023-12-20T02:11:25;94639.03;;;7.55;61.06
23363;BME280;11853;48.080;11.960;2023-12-20T02:13:52;94637.38;;;7.54;61.13
23363;BME280;11853;48.080;11.960;2023-12-20T02:16:18;94639.03;;;7.55;61.28
23363;BME280;11853;48.080;11.960;2023-12-20T02:18:44;94628.75;;;7.52;61.58
23363;BME280;11853;48.080;11.960;2023-12-20T02:21:10;94626.28;;;7.50;61.16
23363;BME280;11853;48.080;11.960;2023-12-20T02:23:45;94613.91;;;7.51;60.59
23363;BME280;11853;48.080;11.960;2023-12-20T02:26:11;94602.66;;;7.49;60.89
23363;BME280;11853;48.080;11.960;2023-12-20T02:28:39;94605.44;;;7.47;60.77
23363;BME280;11853;48.080;11.960;2023-12-20T02:31:05;94606.56;;;7.44;60.99
23363;BME280;11853;48.080;11.960;2023-12-20T02:33:31;94601.28;;;7.44;61.18
23363;BME280;11853;48.080;11.960;2023-12-20T02:35:56;94600.28;;;7.45;60.99
23363;BME280;11853;48.080;11.960;2023-12-20T02:38:22;94599.59;;;7.43;61.42
23363;BME280;11853;48.080;11.960;2023-12-20T02:40:48;94602.22;;;7.43;61.64
23363;BME280;11853;48.080;11.960;2023-12-20T02:43:16;94603.91;;;7.44;61.65
23363;BME280;11853;48.080;11.960;2023-12-20T02:45:45;94607.50;;;7.43;61.85
23363;BME280;11853;48.080;11.960;2023-12-20T02:48:10;94611.84;;;7.44;61.80
23363;BME280;11853;48.080;11.960;2023-12-20T02:50:36;94611.00;;;7.44;62.00
23363;BME280;11853;48.080;11.960;2023-12-20T02:53:02;94609.03;;;7.46;62.11
23363;BME280;11853;48.080;11.960;2023-12-20T02:55:28;94606.56;;;7.44;62.40
23363;BME280;11853;48.080;11.960;2023-12-20T02:57:59;94602.66;;;7.49;62.50
23363;BME280;11853;48.080;11.960;2023-12-20T03:00:25;94599.03;;;7.50;62.38
23363;BME280;11853;48.080;11.960;2023-12-20T03:02:51;94588.47;;;7.50;62.22
23363;BME280;11853;48.080;11.960;2023-12-20T03:05:17;94595.03;;;7.45;62.12
23363;BME280;11853;48.080;11.960;2023-12-20T03:07:43;94585.00;;;7.49;62.82
23363;BME280;11853;48.080;11.960;2023-12-20T03:10:09;94591.81;;;7.52;63.05
23363;BME280;11853;48.080;11.960;2023-12-20T03:12:35;94591.13;;;7.50;63.74
23363;BME280;11853;48.080;11.960;2023-12-20T03:15:01;94583.19;;;7.50;62.64
23363;BME280;11853;48.080;11.960;2023-12-20T03:17:27;94578.75;;;7.40;63.05
23363;BME280;11853;48.080;11.960;2023-12-20T03:19:53;94581.13;;;7.43;63.76
23363;BME280;11853;48.080;11.960;2023-12-20T03:22:19;94575.72;;;7.45;63.80
23363;BME280;11853;48.080;11.960;2023-12-20T03:24:45;94571.25;;;7.45;63.44
23363;BME280;11853;48.080;11.960;2023-12-20T03:27:10;94574.59;;;7.48;63.68
23363;BME280;11853;48.080;11.960;2023-12-20T03:29:36;94569.47;;;7.46;64.40
23363;BME280;11853;48.080;11.960;2023-12-20T03:32:02;94574.59;;;7.48;63.54
23363;BME280;11853;48.080;11.960;2023-12-20T03:34:28;94584.63;;;7.44;64.23
23363;BME280;11853;48.080;11.960;2023-12-20T03:36:54;94586.81;;;7.49;64.10
23363;BME280;11853;48.080;11.960;2023-12-20T03:39:20;94581.81;;;7.45;63.98
23363;BME280;11853;48.080;11.960;2023-12-20T03:41:46;94569.63;;;7.44;64.17
23363;BME280;11853;48.080;11.960;2023-12-20T03:44:12;94573.91;;;7.45;64.43
23363;BME280;11853;48.080;11.960;2023-12-20T03:46:37;94582.53;;;7.48;64.00
23363;BME280;11853;48.080;11.960;2023-12-20T03:49:03;94587.38;;;7.52;64.18
23363;BME280;11853;48.080;11.960;2023-12-20T03:51:29;94582.94;;;7.53;65.09
23363;BME280;11853;48.080;11.960;2023-12-20T03:53:55;94591.69;;;7.53;65.36
23363;BME280;11853;48.080;11.960;2023-12-20T03:56:20;94582.94;;;7.53;65.53
23363;BME280;11853;48.080;11.960;2023-12-20T03:58:46;94594.44;;;7.52;65.73
23363;BME280;11853;48.080;11.960;2023-12-20T04:01:12;94582.09;;;7.52;65.98
23363;BME280;11853;48.080;11.960;2023-12-20T04:03:38;94588.88;;;7.55;65.99
23363;BME280;11853;48.080;11.960;2023-12-20T04:06:05;94580.97;;;7.55;66.41
23363;BME280;11853;48.080;11.960;2023-12-20T04:08:31;94594.16;;;7.55;65.88
23363;BME280;11853;48.080;11.960;2023-12-20T04:10:57;94596.81;;;7.55;66.63
23363;BME280;11853;48.080;11.960;2023-12-20T04:13:23;94611.53;;;7.57;66.50
23363;BME280;11853;48.080;11.960;2023-12-20T04:15:48;94611.69;;;7.56;67.70
23363;BME280;11853;48.080;11.960;2023-12-20T04:18:16;94610.72;;;7.57;67.75
23363;BME280;11853;48.080;11.960;2023-12-20T04:20:42;94613.47;;;7.55;67.97
23363;BME280;11853;48.080;11.960;2023-12-20T04:23:07;94600.84;;;7.59;67.90
23363;BME280;11853;48.080;11.960;2023-12-20T04:25:42;94611.78;;;7.64;67.96
23363;BME280;11853;48.080;11.960;2023-12-20T04:28:11;94605.69;;;7.63;69.83
23363;BME280;11853;48.080;11.960;2023-12-20T04:30:37;94615.41;;;7.63;69.67
23363;BME280;11853;48.080;11.960;2023-12-20T04:33:03;94624.16;;;7.63;70.35
23363;BME280;11853;48.080;11.960;2023-12-20T04:35:29;94615.59;;;7.61;69.93
23363;BME280;11853;48.080;11.960;2023-12-20T04:37:55;94605.16;;;7.60;70.61
23363;BME280;11853;48.080;11.960;2023-12-20T04:40:21;94610.16;;;7.63;70.22
23363;BME280;11853;48.080;11.960;2023-12-20T04:42:47;94613.06;;;7.60;71.07
23363;BME280;11853;48.080;11.960;2023-12-20T04:45:13;94606.13;;;7.59;70.80
23363;BME280;11853;48.080;11.960;2023-12-20T04:47:42;94605.16;;;7.60;71.63
23363;BME280;11853;48.080;11.960;2023-12-20T04:50:08;94607.78;;;7.60;72.23
23363;BME280;11853;48.080;11.960;2023-12-20T04:52:35;94619.16;;;7.60;72.91
23363;BME280;11853;48.080;11.960;2023-12-20T04:55:01;94619.03;;;7.62;73.94
23363;BME280;11853;48.080;11.960;2023-12-20T04:57:27;94620.00;;;7.61;74.92
23363;BME280;11853;48.080;11.960;2023-12-20T04:59:52;94620.00;;;7.61;75.46
23363;BME280;11853;48.080;11.960;2023-12-20T05:02:18;94624.03;;;7.65;76.46
23363;BME280;11853;48.080;11.960;2023-12-20T05:04:44;94626.69;;;7.65;79.01
23363;BME280;11853;48.080;11.960;2023-12-20T05:07:10;94630.16;;;7.65;80.28
23363;BME280;11853;48.080;11.960;2023-12-20T05:09:36;94645.72;;;7.59;82.66
23363;BME280;11853;48.080;11.960;2023-12-20T05:12:02;94644.06;;;7.67;83.92
23363;BME280;11853;48.080;11.960;2023-12-20T05:14:28;94649.63;;;7.64;85.60
23363;BME280;11853;48.080;11.960;2023-12-20T05:16:54;94649.19;;;7.69;86.89
23363;BME280;11853;48.080;11.960;2023-12-20T05:19:20;94658.50;;;7.63;89.66
23363;BME280;11853;48.080;11.960;2023-12-20T05:21:46;94667.38;;;7.62;92.05
23363;BME280;11853;48.080;11.960;2023-12-20T05:24:12;94666.00;;;7.68;92.11
23363;BME280;11853;48.080;11.960;2023-12-20T05:26:37;94676.56;;;7.68;94.58
23363;BME280;11853;48.080;11.960;2023-12-20T05:29:03;94673.22;;;7.66;95.27
23363;BME280;11853;48.080;11.960;2023-12-20T05:31:29;94676.00;;;7.64;96.59
23363;BME280;11853;48.080;11.960;2023-12-20T05:33:55;94681.28;;;7.64;98.78
23363;BME280;11853;48.080;11.960;2023-12-20T05:36:21;94675.16;;;7.64;100.00
23363;BME280;11853;48.080;11.960;2023-12-20T05:38:46;94683.78;;;7.66;100.00
23363;BME280;11853;48.080;11.960;2023-12-20T05:41:12;94693.25;;;7.59;100.00
23363;BME280;11853;48.080;11.960;2023-12-20T05:43:39;94696.84;;;7.58;100.00
23363;BME280;11853;48.080;11.960;2023-12-20T05:46:05;94689.63;;;7.50;100.00
23363;BME280;11853;48.080;11.960;2023-12-20T05:48:31;94687.09;;;7.49;100.00
23363;BME280;11853;48.080;11.960;2023-12-20T05:50:57;94695.59;;;7.52;100.00
23363;BME280;11853;48.080;11.960;2023-12-20T05:53:23;94706.28;;;7.51;100.00
23363;BME280;11853;48.080;11.960;2023-12-20T05:55:49;94703.38;;;7.44;100.00
23363;BME280;11853;48.080;11.960;2023-12-20T05:58:14;94713.22;;;7.42;100.00
23363;BME280;11853;48.080;11.960;2023-12-20T06:00:40;94709.75;;;7.41;100.00
23363;BME280;11853;48.080;11.960;2023-12-20T06:03:06;94712.41;;;7.41;100.00
23363;BME280;11853;48.080;11.960;2023-12-20T06:05:32;94717.69;;;7.41;100.00
23363;BME280;11853;48.080;11.960;2023-12-20T06:07:57;94721.69;;;7.45;100.00
23363;BME280;11853;48.080;11.960;2023-12-20T06:10:27;94721.97;;;7.42;100.00
23363;BME280;11853;48.080;11.960;2023-12-20T06:12:52;94712.41;;;7.41;100.00
23363;BME280;11853;48.080;11.960;2023-12-20T06:15:18;94732.81;;;7.39;100.00
23363;BME280;11853;48.080;11.960;2023-12-20T06:17:44;94728.50;;;7.38;100.00
23363;BME280;11853;48.080;11.960;2023-12-20T06:20:10;94736.28;;;7.40;100.00
23363;BME280;11853;48.080;11.960;2023-12-20T06:22:36;94736.44;;;7.38;100.00
23363;BME280;11853;48.080;11.960;2023-12-20T06:25:02;94742.22;;;7.32;100.00
23363;BME280;11853;48.080;11.960;2023-12-20T06:27:28;94744.44;;;7.27;100.00
23363;BME280;11853;48.080;11.960;2023-12-20T06:29:54;94730.69;;;7.23;100.00
23363;BME280;11853;48.080;11.960;2023-12-20T06:32:20;94738.75;;;7.22;100.00
23363;BME280;11853;48.080;11.960;2023-12-20T06:34:46;94737.59;;;7.15;100.00
23363;BME280;11853;48.080;11.960;2023-12-20T06:37:11;94734.13;;;7.14;100.00
23363;BME280;11853;48.080;11.960;2023-12-20T06:39:37;94748.31;;;7.13;100.00
23363;BME280;11853;48.080;11.960;2023-12-20T06:42:03;94749.53;;;7.09;100.00
23363;BME280;11853;48.080;11.960;2023-12-20T06:44:29;94755.88;;;7.07;100.00
23363;BME280;11853;48.080;11.960;2023-12-20T06:46:55;94754.22;;;7.06;100.00
23363;BME280;11853;48.080;11.960;2023-12-20T06:49:20;94757.41;;;6.99;100.00
23363;BME280;11853;48.080;11.960;2023-12-20T06:51:46;94764.75;;;6.96;100.00
23363;BME280;11853;48.080;11.960;2023-12-20T06:54:12;94766.69;;;6.94;100.00
23363;BME280;11853;48.080;11.960;2023-12-20T06:56:38;94775.03;;;6.99;100.00
23363;BME280;11853;48.080;11.960;2023-12-20T06:59:04;94786.94;;;6.93;100.00
23363;BME280;11853;48.080;11.960;2023-12-20T07:01:29;94787.91;;;6.92;100.00
23363;BME280;11853;48.080;11.960;2023-12-20T07:03:55;94791.50;;;6.91;100.00
23363;BME280;11853;48.080;11.960;2023-12-20T07:06:21;94807.59;;;6.88;100.00
23363;BME280;11853;48.080;11.960;2023-12-20T07:08:46;94792.75;;;6.87;100.00
23363;BME280;11853;48.080;11.960;2023-12-20T07:11:12;94807.88;;;6.85;100.00
23363;BME280;11853;48.080;11.960;2023-12-20T07:13:38;94809.19;;;6.70;100.00
23363;BME280;11853;48.080;11.960;2023-12-20T07:16:04;94810.13;;;6.69;100.00
23363;BME280;11853;48.080;11.960;2023-12-20T07:18:30;94810.97;;;6.69;100.00
23363;BME280;11853;48.080;11.960;2023-12-20T07:20:56;94812.91;;;6.67;100.00
23363;BME280;11853;48.080;11.960;2023-12-20T07:23:22;94814.72;;;6.67;100.00
23363;BME280;11853;48.080;11.960;2023-12-20T07:25:47;94816.63;;;6.65;100.00
23363;BME280;11853;48.080;11.960;2023-12-20T07:28:13;94809.94;;;6.61;100.00
23363;BME280;11853;48.080;11.960;2023-12-20T07:30:39;94829.00;;;6.64;100.00
23363;BME280;11853;48.080;11.960;2023-12-20T07:33:05;94835.09;;;6.65;100.00
23363;BME280;11853;48.080;11.960;2023-12-20T07:35:33;94828.31;;;6.93;100.00
23363;BME280;11853;48.080;11.960;2023-12-20T07:37:59;94833.47;;;7.35;100.00
23363;BME280;11853;48.080;11.960;2023-12-20T07:40:24;94826.63;;;7.63;100.00
23363;BME280;11853;48.080;11.960;2023-12-20T07:42:50;94834.69;;;7.71;100.00
23363;BME280;11853;48.080;11.960;2023-12-20T07:45:16;94833.72;;;7.72;100.00
23363;BME280;11853;48.080;11.960;2023-12-20T07:47:42;94840.59;;;7.94;100.00
23363;BME280;11853;48.080;11.960;2023-12-20T07:50:08;94828.34;;;8.12;100.00
23363;BME280;11853;48.080;11.960;2023-12-20T07:52:33;94834.19;;;8.06;100.00
23363;BME280;11853;48.080;11.960;2023-12-20T07:54:59;94831.84;;;8.13;100.00
23363;BME280;11853;48.080;11.960;2023-12-20T07:57:29;94828.63;;;8.29;100.00
23363;BME280;11853;48.080;11.960;2023-12-20T07:59:55;94836.16;;;8.24;100.00
23363;BME280;11853;48.080;11.960;2023-12-20T08:02:21;94825.31;;;8.17;100.00
23363;BME280;11853;48.080;11.960;2023-12-20T08:04:47;94836.84;;;8.16;100.00
23363;BME280;11853;48.080;11.960;2023-12-20T08:07:13;94842.56;;;8.21;100.00
23363;BME280;11853;48.080;11.960;2023-12-20T08:09:39;94831.72;;;8.34;100.00
23363;BME280;11853;48.080;11.960;2023-12-20T08:12:04;94843.00;;;8.46;100.00
23363;BME280;11853;48.080;11.960;2023-12-20T08:14:30;94844.06;;;8.72;100.00
23363;BME280;11853;48.080;11.960;2023-12-20T08:16:57;94836.03;;;8.64;100.00
23363;BME280;11853;48.080;11.960;2023-12-20T08:19:23;94847.44;;;8.65;100.00
23363;BME280;11853;48.080;11.960;2023-12-20T08:21:49;94843.81;;;8.66;100.00
23363;BME280;11853;48.080;11.960;2023-12-20T08:24:15;94848.13;;;8.57;100.00
23363;BME280;11853;48.080;11.960;2023-12-20T08:26:41;94849.56;;;8.42;100.00
23363;BME280;11853;48.080;11.960;2023-12-20T08:29:06;94858.53;;;8.20;100.00
23363;BME280;11853;48.080;11.960;2023-12-20T08:31:32;94864.38;;;8.23;100.00
23363;BME280;11853;48.080;11.960;2023-12-20T08:33:58;94851.72;;;8.27;100.00
23363;BME280;11853;48.080;11.960;2023-12-20T08:36:24;94860.97;;;8.42;100.00
23363;BME280;11853;48.080;11.960;2023-12-20T08:38:50;94864.84;;;8.48;100.00
23363;BME280;11853;48.080;11.960;2023-12-20T08:41:19;94858.41;;;8.79;100.00
23363;BME280;11853;48.080;11.960;2023-12-20T08:43:45;94857.97;;;8.94;100.00
23363;BME280;11853;48.080;11.960;2023-12-20T08:46:11;94860.94;;;8.71;100.00
23363;BME280;11853;48.080;11.960;2023-12-20T08:48:38;94863.44;;;8.63;100.00
23363;BME280;11853;48.080;11.960;2023-12-20T08:51:04;94859.13;;;8.82;100.00
23363;BME280;11853;48.080;11.960;2023-12-20T08:53:32;94868.28;;;8.97;100.00
23363;BME280;11853;48.080;11.960;2023-12-20T08:55:59;94868.72;;;8.63;100.00
23363;BME280;11853;48.080;11.960;2023-12-20T08:58:27;94876.75;;;8.32;100.00
23363;BME280;11853;48.080;11.960;2023-12-20T09:00:53;94871.34;;;8.05;100.00
23363;BME280;11853;48.080;11.960;2023-12-20T09:03:18;94874.88;;;7.75;100.00
23363;BME280;11853;48.080;11.960;2023-12-20T09:05:44;94867.41;;;7.49;100.00
23363;BME280;11853;48.080;11.960;2023-12-20T09:08:10;94864.03;;;7.37;100.00
23363;BME280;11853;48.080;11.960;2023-12-20T09:10:37;94863.56;;;7.22;100.00
23363;BME280;11853;48.080;11.960;2023-12-20T09:13:03;94872.84;;;7.17;100.00
23363;BME280;11853;48.080;11.960;2023-12-20T09:15:29;94871.00;;;7.08;100.00
23363;BME280;11853;48.080;11.960;2023-12-20T09:17:55;94861.09;;;7.00;100.00
23363;BME280;11853;48.080;11.960;2023-12-20T09:20:21;94859.56;;;6.97;100.00
23363;BME280;11853;48.080;11.960;2023-12-20T09:22:49;94871.91;;;6.97;100.00
23363;BME280;11853;48.080;11.960;2023-12-20T09:25:15;94858.16;;;6.93;100.00
23363;BME280;11853;48.080;11.960;2023-12-20T09:27:43;94870.81;;;6.99;100.00
23363;BME280;11853;48.080;11.960;2023-12-20T09:30:09;94863.03;;;6.98;100.00
23363;BME280;11853;48.080;11.960;2023-12-20T09:32:35;94874.69;;;6.95;100.00
23363;BME280;11853;48.080;11.960;2023-12-20T09:35:02;94879.56;;;7.00;100.00
23363;BME280;11853;48.080;11.960;2023-12-20T09:37:28;94882.19;;;7.00;100.00
23363;BME280;11853;48.080;11.960;2023-12-20T09:39:54;94878.84;;;6.98;100.00
23363;BME280;11853;48.080;11.960;2023-12-20T09:42:33;94873.81;;;6.95;100.00
23363;BME280;11853;48.080;11.960;2023-12-20T09:45:03;94864.63;;;6.89;100.00
23363;BME280;11853;48.080;11.960;2023-12-20T09:47:33;94868.97;;;6.90;100.00
23363;BME280;11853;48.080;11.960;2023-12-20T09:50:00;94872.38;;;6.81;100.00
23363;BME280;11853;48.080;11.960;2023-12-20T09:52:26;94874.03;;;6.82;100.00
23363;BME280;11853;48.080;11.960;2023-12-20T09:54:53;94877.06;;;6.77;100.00
23363;BME280;11853;48.080;11.960;2023-12-20T09:57:20;94877.41;;;6.84;100.00
23363;BME280;11853;48.080;11.960;2023-12-20T09:59:46;94870.16;;;6.86;100.00
23363;BME280;11853;48.080;11.960;2023-12-20T10:02:13;94865.75;;;6.87;100.00
23363;BME280;11853;48.080;11.960;2023-12-20T10:04:46;94867.16;;;6.91;100.00
23363;BME280;11853;48.080;11.960;2023-12-20T10:07:13;94860.06;;;6.91;100.00
23363;BME280;11853;48.080;11.960;2023-12-20T10:09:39;94866.91;;;6.94;100.00
23363;BME280;11853;48.080;11.960;2023-12-20T10:12:05;94870.25;;;6.96;100.00
23363;BME280;11853;48.080;11.960;2023-12-20T10:14:32;94866.59;;;6.87;100.00
23363;BME280;11853;48.080;11.960;2023-12-20T10:17:04;94866.31;;;6.90;100.00
23363;BME280;11853;48.080;11.960;2023-12-20T10:19:34;94855.22;;;6.87;100.00
23363;BME280;11853;48.080;11.960;2023-12-20T10:22:00;94862.66;;;6.82;100.00
23363;BME280;11853;48.080;11.960;2023-12-20T10:24:28;94866.97;;;6.83;100.00
23363;BME280;11853;48.080;11.960;2023-12-20T10:27:08;94860.59;;;6.85;100.00
23363;BME280;11853;48.080;11.960;2023-12-20T10:29:35;94861.94;;;6.80;100.00
23363;BME280;11853;48.080;11.960;2023-12-20T10:32:27;94862.53;;;6.83;100.00
23363;BME280;11853;48.080;11.960;2023-12-20T10:34:54;94858.34;;;6.81;100.00
23363;BME280;11853;48.080;11.960;2023-12-20T10:37:20;94867.09;;;6.81;100.00
23363;BME280;11853;48.080;11.960;2023-12-20T10:39:51;94859.63;;;6.86;100.00
23363;BME280;11853;48.080;11.960;2023-12-20T10:42:21;94862.97;;;6.88;100.00
23363;BME280;11853;48.080;11.960;2023-12-20T10:44:49;94851.84;;;6.85;100.00
23363;BME280;11853;48.080;11.960;2023-12-20T10:47:17;94842.97;;;6.86;100.00
23363;BME280;11853;48.080;11.960;2023-12-20T10:49:43;94847.16;;;6.88;100.00
23363;BME280;11853;48.080;11.960;2023-12-20T10:52:12;94841.16;;;6.86;100.00
23363;BME280;11853;48.080;11.960;2023-12-20T10:54:41;94842.44;;;6.92;100.00
23363;BME280;11853;48.080;11.960;2023-12-20T10:57:07;94834.16;;;6.96;100.00
23363;BME280;11853;48.080;11.960;2023-12-20T10:59:36;94832.50;;;6.95;100.00
23363;BME280;11853;48.080;11.960;2023-12-20T11:02:05;94830.53;;;6.97;100.00
23363;BME280;11853;48.080;11.960;2023-12-20T11:04:55;94824.16;;;7.00;100.00
23363;BME280;11853;48.080;11.960;2023-12-20T11:07:32;94829.44;;;7.00;100.00
23363;BME280;11853;48.080;11.960;2023-12-20T11:10:10;94818.06;;;6.99;100.00
23363;BME280;11853;48.080;11.960;2023-12-20T11:12:48;94819.34;;;7.05;100.00
23363;BME280;11853;48.080;11.960;2023-12-20T11:15:18;94807.97;;;7.05;100.00
23363;BME280;11853;48.080;11.960;2023-12-20T11:17:57;94810.34;;;7.08;100.00
23363;BME280;11853;48.080;11.960;2023-12-20T11:20:35;94808.41;;;7.10;100.00
23363;BME280;11853;48.080;11.960;2023-12-20T11:23:02;94812.97;;;7.08;100.00
23363;BME280;11853;48.080;11.960;2023-12-20T11:25:28;94818.38;;;7.06;100.00
23363;BME280;11853;48.080;11.960;2023-12-20T11:28:08;94822.81;;;7.06;100.00
23363;BME280;11853;48.080;11.960;2023-12-20T11:30:56;94819.06;;;7.08;100.00
23363;BME280;11853;48.080;11.960;2023-12-20T11:33:23;94806.97;;;7.06;100.00
23363;BME280;11853;48.080;11.960;2023-12-20T11:35:50;94800.88;;;7.05;100.00
23363;BME280;11853;48.080;11.960;2023-12-20T11:38:16;94805.88;;;7.08;100.00
23363;BME280;11853;48.080;11.960;2023-12-20T11:40:42;94807.25;;;7.03;100.00
23363;BME280;11853;48.080;11.960;2023-12-20T11:43:09;94810.72;;;7.03;100.00
23363;BME280;11853;48.080;11.960;2023-12-20T11:45:35;94799.34;;;7.03;100.00
23363;BME280;11853;48.080;11.960;2023-12-20T11:48:04;94801.41;;;6.99;100.00
23363;BME280;11853;48.080;11.960;2023-12-20T11:50:31;94789.78;;;7.02;100.00
23363;BME280;11853;48.080;11.960;2023-12-20T11:52:57;94793.34;;;7.00;100.00
23363;BME280;11853;48.080;11.960;2023-12-20T11:55:23;94800.59;;;6.98;100.00
23363;BME280;11853;48.080;11.960;2023-12-20T11:57:52;94799.59;;;6.99;100.00
23363;BME280;11853;48.080;11.960;2023-12-20T12:00:19;94803.78;;;7.02;100.00
23363;BME280;11853;48.080;11.960;2023-12-20T12:02:58;94795.47;;;7.07;100.00
23363;BME280;11853;48.080;11.960;2023-12-20T12:05:24;94790.19;;;7.07;100.00
23363;BME280;11853;48.080;11.960;2023-12-20T12:07:51;94795.78;;;7.13;100.00
23363;BME280;11853;48.080;11.960;2023-12-20T12:10:17;94782.03;;;7.10;100.00
23363;BME280;11853;48.080;11.960;2023-12-20T12:12:43;94786.44;;;7.09;100.00
23363;BME280;11853;48.080;11.960;2023-12-20T12:15:09;94788.97;;;7.11;100.00
23363;BME280;11853;48.080;11.960;2023-12-20T12:17:35;94771.22;;;7.13;100.00
23363;BME280;11853;48.080;11.960;2023-12-20T12:20:05;94785.22;;;7.13;100.00
23363;BME280;11853;48.080;11.960;2023-12-20T12:22:31;94765.97;;;7.22;100.00
23363;BME280;11853;48.080;11.960;2023-12-20T12:25:10;94769.59;;;7.31;100.00
23363;BME280;11853;48.080;11.960;2023-12-20T12:27:40;94771.25;;;7.32;100.00
23363;BME280;11853;48.080;11.960;2023-12-20T12:30:07;94772.66;;;7.36;100.00
23363;BME280;11853;48.080;11.960;2023-12-20T12:32:33;94766.28;;;7.39;100.00
23363;BME280;11853;48.080;11.960;2023-12-20T12:34:59;94777.66;;;7.39;100.00
23363;BME280;11853;48.080;11.960;2023-12-20T12:37:25;94778.50;;;7.40;100.00
23363;BME280;11853;48.080;11.960;2023-12-20T12:39:55;94773.22;;;7.40;100.00
23363;BME280;11853;48.080;11.960;2023-12-20T12:42:21;94758.38;;;7.39;100.00
23363;BME280;11853;48.080;11.960;2023-12-20T12:44:47;94770.72;;;7.38;100.00
23363;BME280;11853;48.080;11.960;2023-12-20T12:47:13;94774.03;;;7.40;100.00
23363;BME280;11853;48.080;11.960;2023-12-20T12:49:40;94770.41;;;7.32;100.00
23363;BME280;11853;48.080;11.960;2023-12-20T12:52:06;94761.28;;;7.36;100.00
23363;BME280;11853;48.080;11.960;2023-12-20T12:54:32;94753.75;;;7.41;100.00